createdAt,value
2023-04-25T00:01:14.671Z,62.23
2023-04-25T00:03:43.558Z,62.79
2023-04-25T00:06:12.513Z,63.15
2023-04-25T00:08:41.276Z,63.44
2023-04-25T00:11:09.916Z,63.26
2023-04-25T00:13:38.693Z,63.26
2023-04-25T00:16:08.000Z,63.02
2023-04-25T00:18:38.211Z,63.16
2023-04-25T00:21:07.400Z,63.61
2023-04-25T00:23:37.411Z,63.54
2023-04-25T00:26:06.229Z,63.63
2023-04-25T00:28:35.016Z,63.25
2023-04-25T00:31:03.732Z,62.50
2023-04-25T00:33:32.437Z,62.53
2023-04-25T00:36:02.735Z,62.48
2023-04-25T00:38:31.453Z,62.67
2023-04-25T00:41:00.208Z,62.58
2023-04-25T00:43:30.303Z,62.83
2023-04-25T00:46:02.136Z,62.17
2023-04-25T00:48:31.029Z,62.91
2023-04-25T00:51:02.496Z,62.27
2023-04-25T00:53:33.669Z,62.00
2023-04-25T00:56:02.434Z,61.93
2023-04-25T00:58:31.467Z,61.51
2023-04-25T01:01:01.352Z,61.58
2023-04-25T01:03:30.769Z,62.00
2023-04-25T01:05:59.751Z,61.71
2023-04-25T01:08:30.129Z,61.93
2023-04-25T01:10:59.516Z,62.28
2023-04-25T01:13:28.403Z,61.97
2023-04-25T01:15:57.570Z,62.20
2023-04-25T01:18:26.588Z,62.52
2023-04-25T01:20:56.631Z,62.43
2023-04-25T01:23:27.441Z,62.43
2023-04-25T01:25:57.147Z,61.98
2023-04-25T01:28:26.353Z,62.34
2023-04-25T01:30:55.668Z,63.12
2023-04-25T01:33:24.963Z,62.79
2023-04-25T01:35:54.237Z,62.85
2023-04-25T01:38:23.069Z,63.81
2023-04-25T01:40:54.295Z,64.14
2023-04-25T01:43:24.401Z,63.07
2023-04-25T01:45:53.898Z,63.56
2023-04-25T01:48:23.187Z,63.20
2023-04-25T01:50:52.018Z,63.32
2023-04-25T01:53:21.001Z,63.48
2023-04-25T01:55:50.624Z,63.61
2023-04-25T01:58:23.767Z,64.85
2023-04-25T02:01:15.583Z,65.36
2023-04-25T02:03:50.801Z,65.10
2023-04-25T02:06:26.859Z,64.90
2023-04-25T02:08:58.443Z,66.01
2023-04-25T02:11:27.207Z,66.25
2023-04-25T02:14:17.560Z,65.16
2023-04-25T02:17:06.804Z,65.62
2023-04-25T02:19:35.760Z,65.99
2023-04-25T02:22:06.719Z,65.79
2023-04-25T02:24:35.900Z,66.19
2023-04-25T02:27:04.880Z,66.65
2023-04-25T02:29:34.979Z,66.32
2023-04-25T02:32:03.752Z,66.96
2023-04-25T02:34:32.980Z,66.11
2023-04-25T02:37:03.367Z,65.91
2023-04-25T02:39:32.173Z,66.28
2023-04-25T02:42:02.040Z,66.87
2023-04-25T02:44:32.165Z,66.64
2023-04-25T02:47:02.301Z,66.90
2023-04-25T02:49:31.013Z,67.29
2023-04-25T02:51:59.933Z,67.75
2023-04-25T02:55:08.553Z,67.14
2023-04-25T02:57:38.324Z,67.86
2023-04-25T03:00:09.674Z,67.57
2023-04-25T03:02:40.028Z,68.44
2023-04-25T03:05:09.956Z,68.90
2023-04-25T03:07:40.425Z,69.37
2023-04-25T03:10:13.056Z,68.50
2023-04-25T03:12:42.256Z,67.83
2023-04-25T03:15:11.965Z,67.86
2023-04-25T03:17:42.139Z,68.57
2023-04-25T03:20:13.094Z,67.71
2023-04-25T03:22:41.865Z,68.60
2023-04-25T03:25:11.045Z,68.20
2023-04-25T03:27:39.791Z,69.19
2023-04-25T03:30:10.332Z,69.03
2023-04-25T03:32:42.094Z,69.05
2023-04-25T03:35:11.277Z,69.63
2023-04-25T03:37:41.536Z,69.37
2023-04-25T03:40:11.537Z,68.99
2023-04-25T03:43:05.320Z,69.15
2023-04-25T03:45:34.081Z,68.20
2023-04-25T03:48:04.711Z,68.05
2023-04-25T03:50:33.595Z,67.93
2023-04-25T03:53:02.518Z,67.83
2023-04-25T03:55:43.633Z,68.42
2023-04-25T03:58:12.658Z,68.92
2023-04-25T04:00:41.466Z,68.94
2023-04-25T04:03:12.619Z,69.56
2023-04-25T04:05:42.111Z,69.89
2023-04-25T04:08:11.513Z,70.40
2023-04-25T04:10:41.861Z,69.23
2023-04-25T04:13:11.312Z,69.39
2023-04-25T04:15:40.188Z,69.94
2023-04-25T04:18:09.315Z,70.14
2023-04-25T04:20:39.470Z,69.42
2023-04-25T04:23:09.701Z,68.84
2023-04-25T04:25:38.716Z,68.77
2023-04-25T04:28:34.216Z,69.03
2023-04-25T04:31:10.745Z,68.33
2023-04-25T04:33:40.210Z,68.46
2023-04-25T04:36:12.067Z,68.06
2023-04-25T04:38:42.081Z,67.68
2023-04-25T04:41:15.484Z,68.17
2023-04-25T04:43:57.228Z,68.39
2023-04-25T04:46:55.884Z,68.22
2023-04-25T04:49:40.064Z,67.88
2023-04-25T04:52:33.895Z,68.57
2023-04-25T04:55:24.051Z,68.77
2023-04-25T04:58:18.045Z,68.28
2023-04-25T05:00:55.348Z,68.73
2023-04-25T05:03:35.484Z,68.35
2023-04-25T05:06:27.387Z,68.44
2023-04-25T05:09:20.231Z,68.76
2023-04-25T05:12:06.927Z,69.39
2023-04-25T05:14:56.084Z,68.84
2023-04-25T05:18:03.215Z,69.49
2023-04-25T05:20:41.348Z,69.54
2023-04-25T05:23:36.940Z,69.30
2023-04-25T05:26:36.201Z,69.35
2023-04-25T05:29:24.858Z,69.71
2023-04-25T05:32:09.607Z,69.69
2023-04-25T05:34:38.588Z,69.45
2023-04-25T05:37:12.250Z,69.16
2023-04-25T05:39:52.289Z,68.97
2023-04-25T05:42:54.102Z,68.23
2023-04-25T05:45:22.881Z,68.32
2023-04-25T05:48:06.795Z,66.67
2023-04-25T05:50:52.600Z,66.35
2023-04-25T05:53:41.532Z,66.08
2023-04-25T05:56:11.120Z,65.01
2023-04-25T05:58:41.322Z,64.50
2023-04-25T06:01:12.720Z,64.11
2023-04-25T06:03:44.327Z,64.40
2023-04-25T06:06:14.366Z,64.16
2023-04-25T06:08:43.277Z,64.01
2023-04-25T06:11:13.925Z,63.96
2023-04-25T06:13:44.010Z,62.57
2023-04-25T06:16:14.052Z,63.43
2023-04-25T06:18:42.889Z,62.78
2023-04-25T06:21:11.754Z,63.05
2023-04-25T06:23:40.439Z,63.29
2023-04-25T06:26:11.393Z,63.56
2023-04-25T06:28:43.843Z,63.12
2023-04-25T06:31:13.715Z,61.76
2023-04-25T06:33:44.729Z,61.43
2023-04-25T06:36:13.667Z,59.19
2023-04-25T06:38:43.492Z,60.50
2023-04-25T06:41:12.179Z,60.90
2023-04-25T06:43:40.847Z,60.55
2023-04-25T06:46:33.451Z,60.43
2023-04-25T06:49:02.393Z,61.25
2023-04-25T06:51:31.872Z,60.77
2023-04-25T06:54:01.475Z,59.78
2023-04-25T06:56:50.899Z,60.89
2023-04-25T06:59:19.712Z,61.18
2023-04-25T07:01:50.529Z,60.67
2023-04-25T07:04:23.236Z,61.33
2023-04-25T07:06:56.113Z,61.22
2023-04-25T07:09:44.523Z,61.25
2023-04-25T07:12:13.508Z,61.55
2023-04-25T07:14:42.523Z,60.80
2023-04-25T07:17:14.289Z,60.23
2023-04-25T07:19:43.286Z,58.85
2023-04-25T07:22:12.348Z,59.28
2023-04-25T07:24:43.642Z,57.80
2023-04-25T07:27:15.499Z,58.09
2023-04-25T07:29:59.933Z,58.51
2023-04-25T07:32:40.242Z,55.56
2023-04-25T07:35:10.390Z,55.95
2023-04-25T07:37:39.442Z,54.64
2023-04-25T07:40:13.947Z,54.95
2023-04-25T07:42:47.820Z,56.37
2023-04-25T07:45:20.741Z,58.52
2023-04-25T07:47:51.310Z,55.47
2023-04-25T07:50:22.469Z,54.93
2023-04-25T07:52:55.417Z,54.00
2023-04-25T07:55:33.255Z,54.54
2023-04-25T07:58:11.059Z,54.41
2023-04-25T08:00:42.749Z,54.52
2023-04-25T08:03:31.241Z,54.95
2023-04-25T08:06:02.177Z,53.03
2023-04-25T08:08:35.037Z,52.71
2023-04-25T08:11:04.050Z,50.78
2023-04-25T08:13:33.562Z,52.05
2023-04-25T08:16:02.442Z,52.01
2023-04-25T08:18:32.982Z,52.12
2023-04-25T08:21:01.922Z,54.06
2023-04-25T08:23:30.800Z,53.99
2023-04-25T08:26:14.170Z,54.10
2023-04-25T08:28:45.190Z,54.95
2023-04-25T08:31:14.173Z,53.19
2023-04-25T08:33:54.023Z,53.53
2023-04-25T08:36:38.515Z,53.31
2023-04-25T08:39:16.067Z,53.13
2023-04-25T08:42:00.305Z,53.85
2023-04-25T08:44:29.604Z,53.60
2023-04-25T08:46:59.722Z,53.53
2023-04-25T08:49:35.373Z,53.90
2023-04-25T08:52:07.520Z,54.64
2023-04-25T08:54:41.572Z,54.47
2023-04-25T08:57:11.556Z,56.22
2023-04-25T08:59:46.664Z,55.82
2023-04-25T09:02:17.899Z,55.56
2023-04-25T09:04:52.150Z,55.91
2023-04-25T09:07:22.382Z,55.56
2023-04-25T09:09:52.380Z,54.87
2023-04-25T09:12:24.871Z,55.81
2023-04-25T09:15:09.711Z,56.12
2023-04-25T09:18:10.880Z,57.08
2023-04-25T09:21:00.802Z,54.81
2023-04-25T09:23:40.781Z,54.21
2023-04-25T09:26:10.904Z,54.92
2023-04-25T09:28:39.994Z,55.05
2023-04-25T09:31:11.738Z,56.62
2023-04-25T09:33:46.981Z,56.32
2023-04-25T09:36:17.712Z,56.62
2023-04-25T09:39:04.642Z,54.84
2023-04-25T09:41:42.178Z,54.94
2023-04-25T09:44:15.219Z,54.34
2023-04-25T09:46:45.960Z,54.43
2023-04-25T09:49:23.137Z,54.33
2023-04-25T09:52:07.483Z,53.48
2023-04-25T09:54:55.422Z,52.10
2023-04-25T09:57:32.089Z,54.37
2023-04-25T10:00:10.117Z,52.84
2023-04-25T10:02:49.701Z,52.49
2023-04-25T10:05:44.407Z,52.13
2023-04-25T10:08:17.538Z,52.06
2023-04-25T10:10:47.451Z,52.43
2023-04-25T10:13:16.414Z,52.39
2023-04-25T10:15:45.989Z,55.65
2023-04-25T10:18:15.919Z,55.73
2023-04-25T10:20:45.134Z,55.38
2023-04-25T10:23:18.095Z,54.72
2023-04-25T10:25:47.766Z,55.74
2023-04-25T10:28:16.613Z,54.45
2023-04-25T10:31:01.350Z,55.35
2023-04-25T10:33:36.753Z,54.23
2023-04-25T10:36:14.296Z,54.89
2023-04-25T10:38:46.024Z,54.41
2023-04-25T10:41:16.582Z,54.46
2023-04-25T10:43:46.855Z,54.46
2023-04-25T10:46:17.883Z,56.51
2023-04-25T10:48:52.522Z,56.10
2023-04-25T10:51:25.150Z,56.15
2023-04-25T10:54:04.141Z,56.05
2023-04-25T10:56:35.152Z,57.16
2023-04-25T10:59:12.537Z,57.07
2023-04-25T11:01:43.627Z,57.36
2023-04-25T11:04:27.121Z,57.98
2023-04-25T11:07:16.086Z,58.57
2023-04-25T11:09:48.187Z,58.15
2023-04-25T11:12:18.093Z,58.47
2023-04-25T11:14:46.927Z,57.74
2023-04-25T11:17:15.850Z,57.35
2023-04-25T11:19:45.020Z,57.22
2023-04-25T11:22:14.628Z,58.28
2023-04-25T11:24:43.881Z,57.49
2023-04-25T11:27:14.909Z,57.58
2023-04-25T11:29:43.808Z,57.63
2023-04-25T11:32:14.145Z,56.96
2023-04-25T11:34:47.296Z,57.46
2023-04-25T11:37:17.688Z,56.84
2023-04-25T11:39:48.197Z,57.29
2023-04-25T11:42:18.526Z,56.51
2023-04-25T11:44:47.459Z,56.67
2023-04-25T11:47:16.203Z,56.02
2023-04-25T11:49:45.342Z,55.91
2023-04-25T11:52:14.141Z,55.52
2023-04-25T11:54:43.007Z,55.93
2023-04-25T11:57:11.866Z,55.75
2023-04-25T11:59:42.366Z,54.73
2023-04-25T12:02:11.133Z,53.67
2023-04-25T12:04:43.402Z,54.04
2023-04-25T12:07:12.896Z,53.90
2023-04-25T12:09:42.613Z,54.04
2023-04-25T12:12:12.868Z,53.86
2023-04-25T12:14:51.181Z,54.36
2023-04-25T12:17:20.260Z,53.15
2023-04-25T12:19:50.298Z,53.17
2023-04-25T12:22:24.589Z,52.83
2023-04-25T12:24:55.082Z,51.80
2023-04-25T12:27:24.170Z,51.35
2023-04-25T12:29:56.794Z,52.00
2023-04-25T12:32:26.184Z,51.40
2023-04-25T12:34:54.987Z,52.46
2023-04-25T12:37:23.731Z,52.19
2023-04-25T12:39:52.714Z,52.29
2023-04-25T12:42:21.467Z,52.08
2023-04-25T12:44:50.206Z,52.48
2023-04-25T12:47:20.357Z,50.37
2023-04-25T12:49:49.811Z,50.63
2023-04-25T12:52:39.568Z,52.08
2023-04-25T12:55:09.522Z,51.46
2023-04-25T12:57:38.303Z,51.16
2023-04-25T13:00:15.750Z,50.92
2023-04-25T13:02:46.312Z,50.91
2023-04-25T13:05:15.463Z,51.12
2023-04-25T13:07:44.131Z,51.75
2023-04-25T13:10:13.602Z,52.82
2023-04-25T13:12:42.249Z,53.12
2023-04-25T13:15:13.372Z,52.72
2023-04-25T13:17:42.815Z,53.53
2023-04-25T13:20:16.497Z,53.23
2023-04-25T13:22:46.931Z,54.04
2023-04-25T13:25:16.603Z,55.48
2023-04-25T13:27:46.302Z,54.12
2023-04-25T13:30:16.046Z,54.44
2023-04-25T13:32:45.518Z,54.49
2023-04-25T13:35:16.467Z,53.45
2023-04-25T13:37:46.478Z,54.17
2023-04-25T13:40:15.553Z,54.70
2023-04-25T13:42:46.440Z,55.74
2023-04-25T13:45:15.955Z,57.00
2023-04-25T13:47:45.022Z,57.58
2023-04-25T13:50:16.993Z,55.05
2023-04-25T13:52:46.112Z,55.68
2023-04-25T13:55:15.281Z,55.48
2023-04-25T13:57:44.965Z,53.79
2023-04-25T14:00:15.868Z,53.64
2023-04-25T14:02:44.862Z,54.81
2023-04-25T14:05:15.483Z,53.69
2023-04-25T14:07:44.663Z,53.42
2023-04-25T14:10:14.291Z,53.91
2023-04-25T14:12:44.387Z,53.23
2023-04-25T14:15:14.295Z,53.19
2023-04-25T14:17:43.090Z,52.47
2023-04-25T14:20:12.635Z,53.11
2023-04-25T14:22:44.772Z,53.38
2023-04-25T14:25:16.921Z,52.74
2023-04-25T14:27:48.547Z,53.03
2023-04-25T14:30:18.531Z,49.05
2023-04-25T14:32:50.919Z,46.08
2023-04-25T14:35:20.904Z,43.77
2023-04-25T14:37:52.159Z,43.53
2023-04-25T14:40:23.953Z,44.53
2023-04-25T14:43:00.064Z,45.24
2023-04-25T14:45:30.277Z,45.93
2023-04-25T14:47:59.118Z,47.33
2023-04-25T14:50:27.921Z,48.27
2023-04-25T14:53:01.431Z,48.36
2023-04-25T14:55:30.275Z,47.93
2023-04-25T14:57:58.934Z,48.47
2023-04-25T15:00:28.046Z,48.72
2023-04-25T15:02:57.648Z,48.44
2023-04-25T15:05:26.789Z,47.90
2023-04-25T15:07:55.597Z,48.42
2023-04-25T15:10:25.704Z,48.62
2023-04-25T15:12:55.725Z,49.17
2023-04-25T15:15:26.947Z,48.66
2023-04-25T15:17:59.000Z,47.99
2023-04-25T15:20:29.084Z,48.11
2023-04-25T15:22:58.256Z,48.64
2023-04-25T15:25:29.647Z,47.52
2023-04-25T15:27:58.554Z,48.75
2023-04-25T15:30:27.810Z,48.30
2023-04-25T15:32:58.642Z,47.15
2023-04-25T15:35:27.616Z,47.14
2023-04-25T15:37:56.366Z,47.08
2023-04-25T15:40:25.138Z,47.48
2023-04-25T15:42:55.256Z,46.40
2023-04-25T15:45:27.069Z,46.89
2023-04-25T15:47:57.933Z,46.53
2023-04-25T15:50:27.299Z,46.56
2023-04-25T15:52:56.335Z,46.85
2023-04-25T15:55:26.901Z,46.34
2023-04-25T15:57:57.009Z,47.22
2023-04-25T16:00:25.830Z,47.31
2023-04-25T16:02:54.662Z,46.90
2023-04-25T16:05:23.663Z,47.52
2023-04-25T16:07:54.843Z,47.75
2023-04-25T16:10:23.619Z,47.76
2023-04-25T16:12:52.479Z,49.03
2023-04-25T16:15:22.714Z,47.71
2023-04-25T16:17:51.668Z,46.38
2023-04-25T16:20:20.754Z,46.66
2023-04-25T16:22:50.799Z,46.12
2023-04-25T16:25:22.117Z,46.74
2023-04-25T16:27:52.307Z,45.72
2023-04-25T16:30:23.257Z,45.23
2023-04-25T16:32:53.181Z,45.77
2023-04-25T16:35:28.999Z,44.64
2023-04-25T16:37:59.123Z,42.90
2023-04-25T16:40:29.123Z,40.46
2023-04-25T16:42:58.000Z,41.35
2023-04-25T16:45:28.548Z,41.84
2023-04-25T16:47:57.443Z,41.63
2023-04-25T16:50:27.347Z,41.84
2023-04-25T16:52:56.283Z,42.43
2023-04-25T16:55:28.002Z,42.09
2023-04-25T16:57:57.088Z,42.13
2023-04-25T17:00:27.459Z,43.47
2023-04-25T17:02:56.290Z,43.29
2023-04-25T17:05:27.438Z,43.68
2023-04-25T17:07:56.893Z,43.76
2023-04-25T17:10:25.742Z,44.44
2023-04-25T17:12:54.742Z,44.63
2023-04-25T17:15:23.732Z,45.26
2023-04-25T17:17:53.936Z,44.24
2023-04-25T17:20:23.009Z,44.15
2023-04-25T17:22:52.072Z,44.82
2023-04-25T17:25:21.808Z,44.97
2023-04-25T17:27:51.355Z,44.70
2023-04-25T17:30:20.715Z,45.77
2023-04-25T17:32:49.653Z,45.08
2023-04-25T17:35:20.113Z,44.76
2023-04-25T17:37:48.872Z,45.03
2023-04-25T17:40:17.812Z,45.27
2023-04-25T17:42:46.981Z,44.63
2023-04-25T17:45:15.682Z,44.92
2023-04-25T17:47:44.402Z,45.53
2023-04-25T17:50:13.746Z,45.68
2023-04-25T17:52:45.142Z,45.96
2023-04-25T17:55:14.494Z,46.19
2023-04-25T17:57:43.278Z,46.08
2023-04-25T18:00:13.600Z,46.10
2023-04-25T18:02:45.417Z,45.75
2023-04-25T18:05:15.777Z,46.78
2023-04-25T18:07:46.317Z,46.89
2023-04-25T18:10:17.681Z,46.78
2023-04-25T18:12:47.251Z,47.00
2023-04-25T18:15:20.383Z,46.93
2023-04-25T18:17:57.095Z,46.67
2023-04-25T18:20:28.920Z,46.99
2023-04-25T18:22:59.200Z,46.27
2023-04-25T18:25:28.101Z,46.61
2023-04-25T18:27:57.484Z,46.39
2023-04-25T18:30:26.929Z,47.04
2023-04-25T18:32:56.383Z,47.55
2023-04-25T18:35:25.187Z,47.80
2023-04-25T18:37:55.651Z,48.17
2023-04-25T18:40:27.236Z,48.16
2023-04-25T18:42:56.119Z,49.09
2023-04-25T18:45:25.116Z,50.33
2023-04-25T18:47:54.849Z,50.81
2023-04-25T18:50:26.477Z,51.62
2023-04-25T18:52:55.570Z,52.97
2023-04-25T18:55:33.350Z,53.86
2023-04-25T18:58:02.399Z,54.73
2023-04-25T19:00:31.437Z,54.31
2023-04-25T19:03:04.725Z,55.43
2023-04-25T19:05:36.246Z,55.77
2023-04-25T19:08:10.009Z,55.93
2023-04-25T19:10:41.406Z,56.43
2023-04-25T19:13:10.907Z,56.33
2023-04-25T19:15:39.715Z,57.29
2023-04-25T19:18:09.149Z,57.16
2023-04-25T19:20:38.219Z,57.45
2023-04-25T19:23:07.302Z,57.54
2023-04-25T19:25:36.124Z,57.82
2023-04-25T19:28:07.875Z,57.59
2023-04-25T19:30:36.779Z,57.46
2023-04-25T19:33:05.932Z,57.97
2023-04-25T19:35:35.171Z,57.98
2023-04-25T19:38:04.692Z,58.48
2023-04-25T19:40:33.834Z,58.21
2023-04-25T19:43:02.791Z,58.35
2023-04-25T19:45:34.145Z,58.62
2023-04-25T19:48:04.807Z,58.59
2023-04-25T19:50:33.645Z,58.76
2023-04-25T19:53:02.399Z,59.13
2023-04-25T19:55:31.202Z,59.41
2023-04-25T19:57:59.898Z,59.48
2023-04-25T20:00:28.652Z,59.32
2023-04-25T20:02:58.755Z,59.95
2023-04-25T20:05:28.003Z,59.61
2023-04-25T20:07:56.651Z,59.12
2023-04-25T20:10:25.548Z,59.25
2023-04-25T20:12:54.601Z,59.35
2023-04-25T20:15:23.427Z,59.42
2023-04-25T20:17:52.115Z,59.87
2023-04-25T20:20:22.364Z,60.58
2023-04-25T20:22:51.624Z,61.21
2023-04-25T20:25:20.382Z,61.18
2023-04-25T20:27:49.225Z,61.22
2023-04-25T20:30:18.603Z,61.63
2023-04-25T20:32:47.299Z,61.67
2023-04-25T20:35:16.381Z,61.80
2023-04-25T20:37:46.628Z,61.70
2023-04-25T20:40:15.978Z,61.62
2023-04-25T20:42:44.632Z,61.99
2023-04-25T20:45:13.806Z,61.55
2023-04-25T20:47:43.074Z,61.91
2023-04-25T20:50:12.717Z,61.80
2023-04-25T20:52:41.788Z,61.76
2023-04-25T20:55:12.246Z,62.24
2023-04-25T20:57:40.987Z,62.22
2023-04-25T21:00:18.711Z,61.98
2023-04-25T21:02:48.221Z,62.15
2023-04-25T21:05:17.044Z,61.48
2023-04-25T21:07:46.890Z,61.41
2023-04-25T21:10:18.237Z,61.21
2023-04-25T21:12:49.572Z,61.29
2023-04-25T21:15:20.532Z,60.20
2023-04-25T21:17:50.024Z,59.56
2023-04-25T21:20:20.816Z,59.12
2023-04-25T21:22:54.261Z,59.81
2023-04-25T21:25:31.104Z,57.96
2023-04-25T21:28:02.303Z,58.15
2023-04-25T21:30:31.610Z,57.23
2023-04-25T21:33:00.666Z,56.32
2023-04-25T21:35:29.332Z,56.43
2023-04-25T21:37:57.987Z,56.36
2023-04-25T21:40:28.708Z,56.45
2023-04-25T21:42:57.417Z,56.38
2023-04-25T21:45:26.278Z,56.75
2023-04-25T21:47:55.165Z,56.23
2023-04-25T21:50:23.893Z,55.34
2023-04-25T21:52:54.185Z,54.83
2023-04-25T21:55:23.153Z,54.70
2023-04-25T21:57:53.447Z,54.86
2023-04-25T22:00:24.985Z,54.75
2023-04-25T22:02:55.438Z,54.55
2023-04-25T22:05:26.678Z,54.92
2023-04-25T22:07:57.652Z,54.39
2023-04-25T22:10:26.744Z,54.52
2023-04-25T22:12:56.992Z,54.33
2023-04-25T22:15:25.794Z,54.97
2023-04-25T22:17:55.636Z,54.78
2023-04-25T22:20:26.487Z,55.74
2023-04-25T22:22:56.580Z,57.09
2023-04-25T22:25:25.690Z,58.32
2023-04-25T22:27:55.461Z,58.69
2023-04-25T22:30:25.833Z,58.49
2023-04-25T22:32:54.532Z,58.67
2023-04-25T22:35:23.400Z,59.57
2023-04-25T22:37:52.094Z,60.23
2023-04-25T22:40:20.950Z,61.44
2023-04-25T22:42:49.695Z,60.16
2023-04-25T22:45:18.813Z,60.11
2023-04-25T22:47:48.878Z,60.21
2023-04-25T22:50:18.124Z,60.78
2023-04-25T22:52:48.508Z,61.63
2023-04-25T22:55:17.250Z,61.73
2023-04-25T22:57:45.987Z,62.02
2023-04-25T23:00:22.295Z,62.68
2023-04-25T23:02:52.657Z,62.74
2023-04-25T23:05:21.540Z,62.39
2023-04-25T23:07:50.256Z,62.52
2023-04-25T23:10:19.457Z,63.12
2023-04-25T23:12:48.704Z,62.92
2023-04-25T23:15:20.904Z,62.64
2023-04-25T23:17:51.140Z,62.26
2023-04-25T23:20:21.117Z,61.71
2023-04-25T23:22:49.838Z,61.74
2023-04-25T23:25:19.127Z,61.18
2023-04-25T23:27:47.745Z,60.95
2023-04-25T23:30:17.171Z,61.01
2023-04-25T23:32:46.030Z,60.70
2023-04-25T23:35:16.198Z,61.17
2023-04-25T23:37:44.905Z,60.78
2023-04-25T23:40:14.009Z,60.92
2023-04-25T23:42:43.341Z,60.86
2023-04-25T23:45:12.585Z,62.19
2023-04-25T23:47:41.288Z,63.06
2023-04-25T23:50:11.283Z,63.80
2023-04-25T23:52:41.447Z,63.85
2023-04-25T23:55:10.902Z,63.69
2023-04-25T23:57:39.565Z,63.94
